Time,TemperatureF,DewpointF,PressureIn,WindDirection,WindDirectionDegrees,WindSpeedMPH,WindSpeedGustMPH,Humidity,HourlyPrecipIn,Conditions,Clouds,dailyrainin,SoftwareType,DateUTC
2013-05-09 00:02:00,52.9,50.9,29.85,SE,135,0.0,-999.0,93,-99.99,,,0.00,Acu-Link.com,2013-05-09 04:02:00,
2013-05-09 00:17:00,52.3,50.3,29.85,ESE,112,2.2,-999.0,93,-99.99,,,0.01,Acu-Link.com,2013-05-09 04:17:00,
2013-05-09 00:33:00,51.8,49.8,29.86,East,90,0.0,-999.0,93,-99.99,,,0.01,Acu-Link.com,2013-05-09 04:33:00,
2013-05-09 00:48:00,51.1,49.4,29.85,East,90,0.0,-999.0,94,-99.99,,,0.01,Acu-Link.com,2013-05-09 04:48:00,
2013-05-09 01:03:00,51.3,49.6,29.85,SW,225,0.0,-999.0,94,-99.99,,,0.01,Acu-Link.com,2013-05-09 05:03:00,
2013-05-09 01:19:00,50.5,48.8,29.85,SSW,202,0.0,-999.0,94,-99.99,,,0.01,Acu-Link.com,2013-05-09 05:19:00,
2013-05-09 01:34:00,50.0,48.3,29.85,ESE,112,2.7,-999.0,94,-99.99,,,0.01,Acu-Link.com,2013-05-09 05:34:00,
2013-05-09 01:49:00,49.5,47.8,29.84,West,270,2.2,-999.0,94,-99.99,,,0.01,Acu-Link.com,2013-05-09 05:49:00,
2013-05-09 02:05:00,48.9,47.2,29.83,SSE,157,0.0,-999.0,94,-99.99,,,0.01,Acu-Link.com,2013-05-09 06:05:00,
2013-05-09 02:20:00,48.9,47.2,29.83,SW,225,0.0,-999.0,94,-99.99,,,0.01,Acu-Link.com,2013-05-09 06:20:00,
2013-05-09 02:35:00,48.2,46.6,29.83,South,180,0.0,-999.0,94,-99.99,,,0.01,Acu-Link.com,2013-05-09 06:35:00,
2013-05-09 02:51:00,48.0,46.4,29.83,WSW,247,0.0,-999.0,94,-99.99,,,0.01,Acu-Link.com,2013-05-09 06:51:00,
2013-05-09 03:06:00,47.8,46.2,29.82,WSW,247,0.0,-999.0,94,-99.99,,,0.01,Acu-Link.com,2013-05-09 07:06:00,
2013-05-09 03:21:00,47.7,46.1,29.82,West,270,1.7,-999.0,94,-99.99,,,0.01,Acu-Link.com,2013-05-09 07:21:00,
2013-05-09 03:36:00,48.2,46.6,29.83,ENE,67,1.1,-999.0,94,-99.99,,,0.01,Acu-Link.com,2013-05-09 07:36:00,
2013-05-09 03:51:00,48.2,46.6,29.82,SSW,202,0.0,-999.0,94,-99.99,,,0.01,Acu-Link.com,2013-05-09 07:51:00,
2013-05-09 04:07:00,48.2,46.6,29.82,South,180,0.0,-999.0,94,-99.99,,,0.01,Acu-Link.com,2013-05-09 08:07:00,
2013-05-09 04:22:00,48.2,46.6,29.82,SSW,202,0.0,-999.0,94,-99.99,,,0.01,Acu-Link.com,2013-05-09 08:22:00,
2013-05-09 04:37:00,48.7,47.1,29.82,East,90,0.0,-999.0,94,-99.99,,,0.01,Acu-Link.com,2013-05-09 08:37:00,
2013-05-09 04:52:00,49.1,47.4,29.82,SSE,157,0.0,-999.0,94,-99.99,,,0.01,Acu-Link.com,2013-05-09 08:52:00,
2013-05-09 05:07:00,49.5,47.8,29.83,SE,135,0.0,-999.0,94,-99.99,,,0.01,Acu-Link.com,2013-05-09 09:07:00,
2013-05-09 05:23:00,49.6,47.9,29.82,SE,135,1.1,-999.0,94,-99.99,,,0.01,Acu-Link.com,2013-05-09 09:23:00,
2013-05-09 05:38:00,49.6,47.9,29.82,WNW,292,0.0,-999.0,94,-99.99,,,0.01,Acu-Link.com,2013-05-09 09:38:00,
2013-05-09 05:53:00,49.8,48.1,29.83,East,90,1.1,-999.0,94,-99.99,,,0.01,Acu-Link.com,2013-05-09 09:53:00,
2013-05-09 06:09:00,49.8,48.1,29.82,East,90,1.7,-999.0,94,-99.99,,,0.01,Acu-Link.com,2013-05-09 10:09:00,
2013-05-09 06:24:00,50.2,48.5,29.83,SSW,202,0.0,-999.0,94,-99.99,,,0.01,Acu-Link.com,2013-05-09 10:24:00,
2013-05-09 06:39:00,50.2,48.5,29.83,SSW,202,0.0,-999.0,94,-99.99,,,0.01,Acu-Link.com,2013-05-09 10:39:00,
2013-05-09 06:55:00,50.4,48.7,29.83,SSW,202,0.0,-999.0,94,-99.99,,,0.01,Acu-Link.com,2013-05-09 10:55:00,
2013-05-09 07:10:00,50.7,49.0,29.85,East,90,0.0,-999.0,94,-99.99,,,0.01,Acu-Link.com,2013-05-09 11:10:00,
2013-05-09 07:25:00,50.9,49.2,29.84,SW,225,0.0,-999.0,94,-99.99,,,0.01,Acu-Link.com,2013-05-09 11:25:00,
2013-05-09 07:41:00,51.6,49.9,29.85,East,90,1.7,-999.0,94,-99.99,,,0.01,Acu-Link.com,2013-05-09 11:41:00,
2013-05-09 07:56:00,52.3,50.6,29.85,NNE,22,1.7,-999.0,94,-99.99,,,0.01,Acu-Link.com,2013-05-09 11:56:00,
2013-05-09 08:11:00,52.9,51.2,29.85,NNE,22,1.1,-999.0,94,-99.99,,,0.01,Acu-Link.com,2013-05-09 12:11:00,
2013-05-09 08:26:00,53.8,52.1,29.85,SE,135,0.0,-999.0,94,-99.99,,,0.01,Acu-Link.com,2013-05-09 12:26:00,
2013-05-09 08:42:00,54.5,52.8,29.85,ESE,112,1.1,-999.0,94,-99.99,,,0.01,Acu-Link.com,2013-05-09 12:42:00,
2013-05-09 08:57:00,55.4,53.7,29.85,SSE,157,2.2,-999.0,94,-99.99,,,0.01,Acu-Link.com,2013-05-09 12:57:00,
2013-05-09 09:12:00,57.4,55.4,29.84,SW,225,0.0,-999.0,93,-99.99,,,0.01,Acu-Link.com,2013-05-09 13:12:00,
2013-05-09 09:27:00,59.0,56.4,29.85,NNE,22,1.1,-999.0,91,-99.99,,,0.01,Acu-Link.com,2013-05-09 13:27:00,
2013-05-09 09:43:00,59.5,57.5,29.85,NW,315,0.0,-999.0,93,-99.99,,,0.01,Acu-Link.com,2013-05-09 13:43:00,
2013-05-09 09:58:00,60.8,58.8,29.85,NNW,337,1.1,-999.0,93,-99.99,,,0.01,Acu-Link.com,2013-05-09 13:58:00,
2013-05-09 10:13:00,61.0,58.4,29.86,West,270,2.2,-999.0,91,-99.99,,,0.01,Acu-Link.com,2013-05-09 14:13:00,
2013-05-09 10:29:00,62.8,58.2,29.85,WSW,247,3.7,-999.0,85,-99.99,,,0.01,Acu-Link.com,2013-05-09 14:29:00,
2013-05-09 10:44:00,61.9,58.3,29.85,West,270,3.2,-999.0,88,-99.99,,,0.01,Acu-Link.com,2013-05-09 14:44:00,
2013-05-09 10:59:00,60.4,57.1,29.85,West,270,0.0,-999.0,89,-99.99,,,0.01,Acu-Link.com,2013-05-09 14:59:00,
2013-05-09 11:15:00,64.6,58.6,29.85,West,270,3.7,-999.0,81,-99.99,,,0.01,Acu-Link.com,2013-05-09 15:15:00,
2013-05-09 11:30:00,65.3,58.3,29.85,SW,225,3.2,-999.0,78,-99.99,,,0.01,Acu-Link.com,2013-05-09 15:30:00,
2013-05-09 11:45:00,66.2,58.4,29.84,West,270,1.1,-999.0,76,-99.99,,,0.01,Acu-Link.com,2013-05-09 15:45:00,
2013-05-09 12:01:00,65.5,58.1,29.84,ENE,67,2.2,-999.0,77,-99.99,,,0.01,Acu-Link.com,2013-05-09 16:01:00,
2013-05-09 12:16:00,64.6,57.6,29.84,ESE,112,2.7,-999.0,78,-99.99,,,0.01,Acu-Link.com,2013-05-09 16:16:00,
2013-05-09 12:31:00,66.9,57.2,29.83,West,270,2.7,-999.0,71,-99.99,,,0.01,Acu-Link.com,2013-05-09 16:31:00,
2013-05-09 12:46:00,66.7,57.8,29.83,ENE,67,1.1,-999.0,73,-99.99,,,0.01,Acu-Link.com,2013-05-09 16:46:00,
2013-05-09 13:01:00,64.0,57.7,29.83,SE,135,1.7,-999.0,80,-99.99,,,0.01,Acu-Link.com,2013-05-09 17:01:00,
2013-05-09 13:17:00,67.3,58.0,29.82,SE,135,2.7,-999.0,72,-99.99,,,0.01,Acu-Link.com,2013-05-09 17:17:00,
2013-05-09 13:32:00,68.0,57.0,29.82,SSE,157,5.8,-999.0,68,-99.99,,,0.01,Acu-Link.com,2013-05-09 17:32:00,
2013-05-09 13:47:00,69.4,57.5,29.82,NNW,337,0.0,-999.0,66,-99.99,,,0.01,Acu-Link.com,2013-05-09 17:47:00,
2013-05-09 14:02:00,67.5,57.4,29.82,SSW,202,1.7,-999.0,70,-99.99,,,0.01,Acu-Link.com,2013-05-09 18:02:00,
2013-05-09 14:18:00,67.6,57.1,29.81,West,270,2.7,-999.0,69,-99.99,,,0.01,Acu-Link.com,2013-05-09 18:18:00,
2013-05-09 14:33:00,68.5,58.3,29.81,West,270,3.7,-999.0,70,-99.99,,,0.01,Acu-Link.com,2013-05-09 18:33:00,
2013-05-09 14:48:00,69.6,58.1,29.81,West,270,7.8,-999.0,67,-99.99,,,0.01,Acu-Link.com,2013-05-09 18:48:00,
2013-05-09 15:03:00,69.6,57.7,29.80,West,270,4.7,-999.0,66,-99.99,,,0.01,Acu-Link.com,2013-05-09 19:03:00,
2013-05-09 15:19:00,68.5,57.5,29.80,WNW,292,5.8,-999.0,68,-99.99,,,0.01,Acu-Link.com,2013-05-09 19:19:00,
2013-05-09 15:34:00,67.6,58.6,29.79,West,270,4.7,-999.0,73,-99.99,,,0.01,Acu-Link.com,2013-05-09 19:34:00,
2013-05-09 15:49:00,68.4,57.8,29.80,WSW,247,2.7,-999.0,69,-99.99,,,0.01,Acu-Link.com,2013-05-09 19:49:00,
2013-05-09 16:05:00,66.4,59.3,29.80,WNW,292,3.7,-999.0,78,-99.99,,,0.01,Acu-Link.com,2013-05-09 20:05:00,
2013-05-09 16:20:00,66.6,58.8,29.79,West,270,2.2,-999.0,76,-99.99,,,0.01,Acu-Link.com,2013-05-09 20:20:00,
2013-05-09 16:35:00,66.7,59.6,29.80,West,270,5.3,-999.0,78,-99.99,,,0.01,Acu-Link.com,2013-05-09 20:35:00,
2013-05-09 16:50:00,66.0,59.3,29.80,West,270,4.2,-999.0,79,-99.99,,,0.01,Acu-Link.com,2013-05-09 20:50:00,
2013-05-09 17:05:00,67.3,60.2,29.80,WNW,292,6.8,-999.0,78,-99.99,,,0.01,Acu-Link.com,2013-05-09 21:05:00,
2013-05-09 17:20:00,67.8,60.7,29.81,NW,315,2.7,-999.0,78,-99.99,,,0.01,Acu-Link.com,2013-05-09 21:20:00,
2013-05-09 17:36:00,69.1,60.1,29.80,West,270,4.7,-999.0,73,-99.99,,,0.01,Acu-Link.com,2013-05-09 21:36:00,
2013-05-09 17:51:00,67.5,60.0,29.80,ESE,112,0.0,-999.0,77,-99.99,,,0.01,Acu-Link.com,2013-05-09 21:51:00,
2013-05-09 18:06:00,66.7,60.0,29.79,SW,225,2.2,-999.0,79,-99.99,,,0.01,Acu-Link.com,2013-05-09 22:06:00,
2013-05-09 18:21:00,66.9,60.2,29.80,WSW,247,2.7,-999.0,79,-99.99,,,0.01,Acu-Link.com,2013-05-09 22:21:00,
2013-05-09 18:37:00,65.8,59.8,29.80,West,270,3.7,-999.0,81,-99.99,,,0.01,Acu-Link.com,2013-05-09 22:37:00,
2013-05-09 18:52:00,65.1,59.1,29.80,West,270,4.7,-999.0,81,-99.99,,,0.01,Acu-Link.com,2013-05-09 22:52:00,
2013-05-09 19:07:00,64.8,59.5,29.80,West,270,3.7,-999.0,83,-99.99,,,0.01,Acu-Link.com,2013-05-09 23:07:00,
2013-05-09 19:22:00,64.6,59.7,29.82,WNW,292,1.7,-999.0,84,-99.99,,,0.01,Acu-Link.com,2013-05-09 23:22:00,
2013-05-09 19:37:00,64.2,59.9,29.81,WNW,292,2.2,-999.0,86,-99.99,,,0.01,Acu-Link.com,2013-05-09 23:37:00,
2013-05-09 19:52:00,63.7,59.8,29.81,West,270,2.2,-999.0,87,-99.99,,,0.01,Acu-Link.com,2013-05-09 23:52:00,
2013-05-09 20:08:00,62.4,59.1,29.82,South,180,0.0,-999.0,89,-99.99,,,0.01,Acu-Link.com,2013-05-10 00:08:00,
2013-05-09 20:23:00,61.0,58.0,29.82,SW,225,0.0,-999.0,90,-99.99,,,0.01,Acu-Link.com,2013-05-10 00:23:00,
2013-05-09 20:38:00,59.7,56.8,29.82,ESE,112,0.0,-999.0,90,-99.99,,,0.01,Acu-Link.com,2013-05-10 00:38:00,
2013-05-09 20:53:00,58.8,56.2,29.84,SSW,202,0.0,-999.0,91,-99.99,,,0.01,Acu-Link.com,2013-05-10 00:53:00,
2013-05-09 21:09:00,57.9,55.6,29.85,South,180,0.0,-999.0,92,-99.99,,,0.01,Acu-Link.com,2013-05-10 01:09:00,
2013-05-09 21:24:00,57.6,55.6,29.84,WNW,292,0.0,-999.0,93,-99.99,,,0.01,Acu-Link.com,2013-05-10 01:24:00,
2013-05-09 21:39:00,57.0,55.0,29.85,South,180,0.0,-999.0,93,-99.99,,,0.01,Acu-Link.com,2013-05-10 01:39:00,
2013-05-09 21:55:00,56.5,54.5,29.86,NW,315,1.1,-999.0,93,-99.99,,,0.01,Acu-Link.com,2013-05-10 01:55:00,
2013-05-09 22:10:00,56.7,55.0,29.86,SSW,202,0.0,-999.0,94,-99.99,,,0.01,Acu-Link.com,2013-05-10 02:10:00,
2013-05-09 22:25:00,56.7,55.0,29.86,SSW,202,0.0,-999.0,94,-99.99,,,0.01,Acu-Link.com,2013-05-10 02:25:00,
2013-05-09 22:41:00,56.3,54.6,29.87,ENE,67,0.0,-999.0,94,-99.99,,,0.01,Acu-Link.com,2013-05-10 02:41:00,
2013-05-09 22:56:00,55.9,54.2,29.87,East,90,1.7,-999.0,94,-99.99,,,0.01,Acu-Link.com,2013-05-10 02:56:00,
2013-05-09 23:11:00,55.9,54.2,29.86,SSE,157,0.0,-999.0,94,-99.99,,,0.01,Acu-Link.com,2013-05-10 03:11:00,
2013-05-09 23:27:00,55.4,53.7,29.86,ESE,112,0.0,-999.0,94,-99.99,,,0.01,Acu-Link.com,2013-05-10 03:27:00,
2013-05-09 23:42:00,54.9,53.2,29.86,South,180,0.0,-999.0,94,-99.99,,,0.01,Acu-Link.com,2013-05-10 03:42:00,
2013-05-09 23:57:00,54.7,53.0,29.86,South,180,0.0,-999.0,94,-99.99,,,0.01,Acu-Link.com,2013-05-10 03:57:00,